createdAt,value
2018-12-07T00:27:36.797Z,3.13
2018-12-07T00:53:49.316Z,3.03
2018-12-07T00:58:44.357Z,2.93
2018-12-07T01:03:39.395Z,2.90
2018-12-07T01:14:32.205Z,3.57
2018-12-07T01:19:27.025Z,2.80
2018-12-07T01:24:22.155Z,3.17
2018-12-07T01:29:16.981Z,2.90
2018-12-07T01:34:16.656Z,2.93
2018-12-07T01:39:12.815Z,2.90
2018-12-07T01:44:07.883Z,3.20
2018-12-07T01:49:03.860Z,2.87
2018-12-07T01:54:00.753Z,2.90
2018-12-07T01:58:57.705Z,2.90
2018-12-07T02:03:52.669Z,2.97
2018-12-07T02:08:47.522Z,2.50
2018-12-07T02:13:42.536Z,3.00
2018-12-07T02:18:37.533Z,2.77
2018-12-07T02:23:32.698Z,3.20
2018-12-07T02:28:32.256Z,3.20
2018-12-07T02:33:31.939Z,3.00
2018-12-07T02:38:28.473Z,3.10
2018-12-07T02:43:24.688Z,3.07
2018-12-07T02:48:20.389Z,3.23
2018-12-07T02:53:16.379Z,2.93
2018-12-07T02:58:12.089Z,3.30
2018-12-07T03:03:09.334Z,3.33
2018-12-07T03:08:08.242Z,3.30
2018-12-07T03:13:07.479Z,3.57
2018-12-07T03:18:02.648Z,3.60
2018-12-07T03:22:57.571Z,3.57
2018-12-07T03:27:53.413Z,2.97
2018-12-07T03:32:49.694Z,3.00
2018-12-07T03:37:44.725Z,3.23
2018-12-07T03:42:40.539Z,2.37
2018-12-07T03:47:35.423Z,3.00
2018-12-07T03:52:30.385Z,2.90
2018-12-07T03:57:26.086Z,2.90
2018-12-07T04:02:20.948Z,2.23
2018-12-07T04:07:19.269Z,2.90
2018-12-07T04:12:18.624Z,3.20
2018-12-07T04:17:19.306Z,2.50
2018-12-07T04:22:14.847Z,2.90
2018-12-07T04:27:11.361Z,2.70
2018-12-07T04:32:09.691Z,2.53
2018-12-07T04:37:06.099Z,3.07
2018-12-07T04:42:01.045Z,2.97
2018-12-07T04:46:58.367Z,2.60
2018-12-07T04:51:54.439Z,2.40
2018-12-07T04:56:49.518Z,2.23
2018-12-07T05:01:46.157Z,2.20
2018-12-07T05:06:41.942Z,2.20
2018-12-07T05:11:37.693Z,2.40
2018-12-07T05:16:32.636Z,2.10
2018-12-07T05:26:41.483Z,2.23
2018-12-07T05:31:36.620Z,2.53
2018-12-07T05:36:31.452Z,2.30
2018-12-07T05:41:26.397Z,2.10
2018-12-07T05:46:21.382Z,2.20
2018-12-07T05:51:18.789Z,1.97
2018-12-07T05:56:15.787Z,2.40
2018-12-07T06:01:10.761Z,2.43
2018-12-07T06:06:05.786Z,2.27
2018-12-07T06:11:01.176Z,1.87
2018-12-07T06:15:56.025Z,1.90
2018-12-07T06:20:55.550Z,1.77
2018-12-07T06:25:50.687Z,2.00
2018-12-07T06:30:45.605Z,1.90
2018-12-07T06:35:42.577Z,1.60
2018-12-07T06:40:37.601Z,1.60
2018-12-07T06:45:35.272Z,1.70
2018-12-07T06:50:30.588Z,1.40
2018-12-07T06:55:25.606Z,1.90
2018-12-07T07:00:21.272Z,2.00
2018-12-07T07:05:16.245Z,2.03
2018-12-07T07:10:11.052Z,1.90
2018-12-07T07:15:06.533Z,1.93
2018-12-07T07:20:01.328Z,2.20
2018-12-07T07:24:56.292Z,2.00
2018-12-07T07:29:51.564Z,2.13
2018-12-07T07:34:46.336Z,1.60
2018-12-07T07:39:41.284Z,1.63
2018-12-07T07:44:36.181Z,1.83
2018-12-07T07:49:31.048Z,1.60
2018-12-07T07:54:26.785Z,1.53
2018-12-07T07:59:22.460Z,1.87
2018-12-07T08:04:17.601Z,1.70
2018-12-07T08:09:12.478Z,1.67
2018-12-07T08:14:07.420Z,1.80
2018-12-07T08:19:02.300Z,1.57
2018-12-07T08:23:57.420Z,1.60
2018-12-07T08:28:52.451Z,1.50
2018-12-07T08:33:47.570Z,1.50
2018-12-07T08:38:42.584Z,1.60
2018-12-07T08:43:39.053Z,1.67
2018-12-07T08:59:33.171Z,1.60
2018-12-07T09:15:30.759Z,1.87
2018-12-07T09:46:32.990Z,1.73
2018-12-07T09:51:34.024Z,1.80
2018-12-07T09:56:34.902Z,1.80
2018-12-07T10:01:34.839Z,2.10
2018-12-07T10:06:33.841Z,2.23
2018-12-07T10:27:24.368Z,1.90
2018-12-07T10:32:19.774Z,1.90
2018-12-07T10:37:14.797Z,1.60
2018-12-07T10:42:09.920Z,2.20
2018-12-07T10:47:05.461Z,1.60
2018-12-07T10:52:00.910Z,1.80
2018-12-07T10:56:55.803Z,1.70
2018-12-07T11:01:55.739Z,1.80
2018-12-07T11:06:54.659Z,1.63
2018-12-07T11:12:56.166Z,1.60
2018-12-07T11:17:56.425Z,1.30
2018-12-07T11:22:56.525Z,1.20
2018-12-07T11:27:56.680Z,0.83
2018-12-07T11:32:56.711Z,1.13
2018-12-07T11:37:51.793Z,0.80
2018-12-07T11:42:46.763Z,0.70
2018-12-07T11:47:41.669Z,0.50
2018-12-07T11:52:36.464Z,0.60
2018-12-07T11:57:31.336Z,0.80
2018-12-07T12:02:26.681Z,0.60
2018-12-07T12:07:21.769Z,0.70
2018-12-07T12:12:16.973Z,0.70
2018-12-07T12:17:12.111Z,0.80
2018-12-07T12:22:07.997Z,0.73
2018-12-07T12:27:05.795Z,0.93
2018-12-07T12:32:00.810Z,0.60
2018-12-07T12:36:58.992Z,0.73
2018-12-07T12:41:54.746Z,0.97
2018-12-07T12:46:50.215Z,1.10
2018-12-07T12:51:45.186Z,1.77
2018-12-07T12:56:41.032Z,1.80
2018-12-07T13:01:35.882Z,1.67
2018-12-07T13:06:30.858Z,1.50
2018-12-07T13:11:31.752Z,1.20
2018-12-07T13:16:26.675Z,1.50
2018-12-07T13:21:21.586Z,1.63
2018-12-07T13:26:17.134Z,1.40
2018-12-07T13:31:13.869Z,1.70
2018-12-07T13:36:10.252Z,1.37
2018-12-07T13:41:32.622Z,1.90
2018-12-07T13:46:27.656Z,1.30
2018-12-07T13:51:24.260Z,1.40
2018-12-07T13:56:19.477Z,1.57
2018-12-07T14:01:16.180Z,1.40
2018-12-07T14:06:11.430Z,1.50
2018-12-07T14:11:06.619Z,1.77
2018-12-07T14:16:01.985Z,1.90
2018-12-07T14:20:57.022Z,1.90
2018-12-07T14:25:56.694Z,1.80
2018-12-07T14:30:54.174Z,1.97
2018-12-07T14:35:54.623Z,1.70
2018-12-07T14:40:56.887Z,1.63
2018-12-07T14:52:09.718Z,1.73
2018-12-07T14:57:10.363Z,1.83
2018-12-07T15:02:05.874Z,1.97
2018-12-07T15:07:08.150Z,1.73
2018-12-07T15:12:03.383Z,2.17
2018-12-07T15:16:58.589Z,2.30
2018-12-07T15:21:54.657Z,2.63
2018-12-07T15:26:59.494Z,2.67
2018-12-07T15:32:00.338Z,2.63
2018-12-07T15:36:58.409Z,3.10
2018-12-07T15:42:17.997Z,2.70
2018-12-07T15:47:19.111Z,2.73
2018-12-07T15:52:20.228Z,3.00
2018-12-07T15:57:22.905Z,3.43
2018-12-07T16:02:41.826Z,3.00
2018-12-07T16:07:38.999Z,3.30
2018-12-07T16:12:34.845Z,3.10
2018-12-07T16:17:29.893Z,2.50
2018-12-07T16:22:25.450Z,2.57
2018-12-07T16:27:20.981Z,2.50
2018-12-07T16:32:17.786Z,2.43
2018-12-07T16:37:13.749Z,2.50
2018-12-07T16:42:11.358Z,2.43
2018-12-07T16:47:18.757Z,2.57
2018-12-07T16:52:14.066Z,2.60
2018-12-07T16:57:09.060Z,2.30
2018-12-07T17:02:04.281Z,2.50
2018-12-07T17:06:59.207Z,2.20
2018-12-07T17:11:55.893Z,2.33
2018-12-07T17:16:51.224Z,2.90
2018-12-07T17:32:33.677Z,2.70
2018-12-07T17:37:34.704Z,2.43
2018-12-07T17:42:34.898Z,2.47
2018-12-07T17:47:34.790Z,2.60
2018-12-07T17:57:51.802Z,2.10
2018-12-07T18:02:46.935Z,2.23
2018-12-07T18:07:42.042Z,2.20
2018-12-07T18:12:37.678Z,2.60
2018-12-07T18:17:32.842Z,2.27
2018-12-07T18:22:27.983Z,2.50
2018-12-07T18:27:23.066Z,2.10
2018-12-07T18:32:18.163Z,2.13
2018-12-07T18:37:13.710Z,2.03
2018-12-07T18:42:08.940Z,1.90
2018-12-07T18:47:06.062Z,1.97
2018-12-07T18:52:01.517Z,2.20
2018-12-07T18:56:56.686Z,2.43
2018-12-07T19:01:51.863Z,2.90
2018-12-07T19:06:46.779Z,2.73
2018-12-07T19:11:41.777Z,2.60
2018-12-07T19:16:36.908Z,2.87
2018-12-07T19:21:32.876Z,2.70
2018-12-07T19:26:27.997Z,2.50
2018-12-07T19:31:23.064Z,2.60
2018-12-07T19:36:18.066Z,2.20
2018-12-07T19:41:14.655Z,1.60
2018-12-07T19:46:09.702Z,1.90
2018-12-07T19:51:09.901Z,1.13
2018-12-07T19:56:05.192Z,1.20
2018-12-07T20:01:00.345Z,1.10
2018-12-07T20:05:55.789Z,1.00
2018-12-07T20:10:50.877Z,1.20
2018-12-07T20:15:45.946Z,0.90
2018-12-07T20:21:04.568Z,0.90
2018-12-07T20:32:19.903Z,0.73
2018-12-07T20:37:45.456Z,0.90
2018-12-07T20:42:40.524Z,0.80
2018-12-07T20:47:35.580Z,0.60
2018-12-07T20:52:30.471Z,0.80
2018-12-07T20:57:25.849Z,0.70
2018-12-07T21:02:21.163Z,0.57
2018-12-07T21:09:34.744Z,0.47
2018-12-07T21:14:49.719Z,0.37
2018-12-07T21:19:55.256Z,0.50
2018-12-07T21:24:51.981Z,0.50
2018-12-07T21:31:02.360Z,0.53
2018-12-07T21:41:33.181Z,0.50
2018-12-07T21:46:28.142Z,0.50
2018-12-07T21:51:38.831Z,0.37
2018-12-07T21:56:33.663Z,0.70
2018-12-07T22:01:28.698Z,0.73
2018-12-07T22:06:25.843Z,0.83
2018-12-07T22:11:21.191Z,0.83
2018-12-07T22:16:16.086Z,0.80
2018-12-07T22:21:11.203Z,1.00
2018-12-07T22:26:06.706Z,1.10
2018-12-07T22:31:02.238Z,1.07
2018-12-07T22:35:57.224Z,0.83
2018-12-07T22:40:52.279Z,0.80
2018-12-07T22:45:59.205Z,0.60
2018-12-07T22:56:03.487Z,0.60
2018-12-07T23:00:58.796Z,0.20
2018-12-07T23:05:54.081Z,0.47
2018-12-07T23:10:48.861Z,0.30
2018-12-07T23:15:43.793Z,0.40
2018-12-07T23:20:38.714Z,0.50
2018-12-07T23:25:33.903Z,0.63
2018-12-07T23:30:28.799Z,0.50
2018-12-07T23:35:23.839Z,0.73
2018-12-07T23:40:18.972Z,0.90
2018-12-07T23:45:14.138Z,0.70
2018-12-07T23:50:09.471Z,0.80
2018-12-07T23:55:04.654Z,0.70
2018-12-07T23:59:59.578Z,0.60
